createdAt,value
2019-04-03T00:01:37.397Z,50.40
2019-04-03T00:04:06.845Z,50.40
2019-04-03T00:06:36.276Z,50.30
2019-04-03T00:11:39.531Z,50.00
2019-04-03T00:14:07.917Z,50.40
2019-04-03T00:16:37.381Z,49.90
2019-04-03T00:19:06.999Z,50.20
2019-04-03T00:21:36.505Z,50.20
2019-04-03T00:24:05.953Z,50.50
2019-04-03T00:26:35.587Z,50.30
2019-04-03T00:31:35.167Z,49.90
2019-04-03T00:34:04.603Z,50.40
2019-04-03T00:36:34.381Z,50.30
2019-04-03T00:39:06.385Z,50.60
2019-04-03T00:41:35.812Z,50.60
2019-04-03T00:44:05.496Z,49.90
2019-04-03T00:46:35.254Z,50.30
2019-04-03T00:49:04.710Z,50.10
2019-04-03T00:51:34.147Z,50.30
2019-04-03T00:54:03.993Z,50.50
2019-04-03T00:59:02.379Z,50.00
2019-04-03T01:01:32.175Z,50.70
2019-04-03T01:04:01.830Z,50.80
2019-04-03T01:06:31.242Z,50.70
2019-04-03T01:09:01.161Z,51.00
2019-04-03T01:14:01.785Z,50.40
2019-04-03T01:16:33.080Z,51.00
2019-04-03T01:19:05.230Z,51.00
2019-04-03T01:21:36.275Z,50.90
2019-04-03T01:24:07.533Z,51.00
2019-04-03T01:26:36.576Z,51.20
2019-04-03T01:29:06.077Z,51.30
2019-04-03T01:34:04.522Z,50.70
2019-04-03T01:36:34.249Z,51.40
2019-04-03T01:39:04.931Z,51.00
2019-04-03T01:41:34.665Z,52.20
2019-04-03T01:44:04.275Z,51.80
2019-04-03T01:49:03.162Z,51.20
2019-04-03T01:54:02.967Z,51.40
2019-04-03T01:56:33.860Z,52.10
2019-04-03T01:59:06.109Z,52.10
2019-04-03T02:01:36.611Z,52.10
2019-04-03T02:04:06.408Z,52.30
2019-04-03T02:06:35.918Z,52.40
2019-04-03T02:09:09.610Z,52.50
2019-04-03T02:14:08.188Z,52.00
2019-04-03T02:16:37.652Z,52.60
2019-04-03T02:19:07.132Z,52.40
2019-04-03T02:21:37.000Z,52.60
2019-04-03T02:24:06.418Z,52.60
2019-04-03T02:26:36.037Z,52.50
2019-04-03T02:29:08.406Z,52.60
2019-04-03T02:31:36.774Z,52.80
2019-04-03T02:34:06.269Z,52.60
2019-04-03T02:36:36.146Z,52.60
2019-04-03T02:39:07.392Z,52.80
2019-04-03T02:41:37.882Z,52.80
2019-04-03T02:44:07.610Z,53.10
2019-04-03T02:46:37.047Z,53.00
2019-04-03T02:49:09.066Z,53.30
2019-04-03T02:54:12.419Z,52.70
2019-04-03T02:56:44.498Z,53.30
2019-04-03T02:59:14.468Z,53.40
2019-04-03T03:01:43.902Z,53.70
2019-04-03T03:04:13.386Z,53.70
2019-04-03T03:06:43.236Z,53.90
2019-04-03T03:09:14.238Z,54.10
2019-04-03T03:11:43.946Z,54.70
2019-04-03T03:14:13.861Z,53.80
2019-04-03T03:16:45.076Z,53.80
2019-04-03T03:19:16.371Z,54.20
2019-04-03T03:21:47.484Z,54.30
2019-04-03T03:24:17.658Z,54.00
2019-04-03T03:26:48.084Z,54.10
2019-04-03T03:29:23.849Z,54.40
2019-04-03T03:32:15.414Z,54.30
2019-04-03T03:36:58.661Z,54.30
2019-04-03T03:39:24.200Z,54.70
2019-04-03T03:41:57.530Z,54.90
2019-04-03T03:44:27.072Z,54.70
2019-04-03T03:47:01.094Z,54.90
2019-04-03T03:49:30.549Z,55.00
2019-04-03T03:52:04.071Z,55.00
2019-04-03T03:57:04.824Z,54.60
2019-04-03T03:59:34.030Z,55.10
2019-04-03T04:04:36.522Z,54.40
2019-04-03T04:07:05.981Z,55.10
2019-04-03T04:09:35.943Z,55.10
2019-04-03T04:12:07.597Z,55.20
2019-04-03T04:14:39.631Z,55.30
2019-04-03T04:19:40.564Z,54.70
2019-04-03T04:22:10.237Z,55.30
2019-04-03T04:24:39.851Z,55.30
2019-04-03T04:29:41.044Z,55.00
2019-04-03T04:32:09.711Z,55.50
2019-04-03T04:34:39.355Z,55.30
2019-04-03T04:37:09.030Z,55.80
2019-04-03T04:39:38.879Z,54.90
2019-04-03T04:42:08.425Z,54.70
2019-04-03T04:52:06.696Z,53.30
2019-04-03T04:54:36.380Z,54.10
2019-04-03T04:57:08.531Z,53.90
2019-04-03T05:14:35.050Z,52.00
2019-04-03T05:17:04.727Z,52.50
2019-04-03T05:22:03.175Z,51.80
2019-04-03T05:32:02.809Z,51.30
2019-04-03T05:59:28.012Z,49.20
2019-04-03T06:31:51.033Z,47.50
2019-04-03T06:56:52.059Z,46.50
2019-04-03T07:01:50.554Z,46.00
2019-04-03T07:04:21.389Z,45.10
2019-04-03T07:06:50.946Z,44.90
2019-04-03T07:09:24.014Z,44.70
2019-04-03T07:11:51.837Z,43.70
2019-04-03T07:14:21.324Z,43.90
2019-04-03T07:16:50.918Z,44.70
2019-04-03T07:19:20.519Z,44.00
2019-04-03T07:21:50.094Z,43.50
2019-04-03T07:24:19.522Z,42.70
2019-04-03T07:26:49.266Z,43.10
2019-04-03T07:29:18.661Z,42.90
2019-04-03T07:31:48.357Z,45.00
2019-04-03T07:34:17.868Z,43.20
2019-04-03T07:36:47.575Z,42.90
2019-04-03T07:39:19.101Z,42.10
2019-04-03T07:41:48.538Z,42.10
2019-04-03T07:44:17.961Z,42.40
2019-04-03T07:46:48.014Z,42.60
2019-04-03T07:49:17.828Z,41.90
2019-04-03T07:51:47.649Z,42.70
2019-04-03T07:54:20.168Z,42.40
2019-04-03T07:56:50.521Z,42.30
2019-04-03T07:59:19.979Z,41.80
2019-04-03T08:01:51.710Z,41.60
2019-04-03T08:04:21.992Z,41.70
2019-04-03T08:06:52.277Z,41.50
2019-04-03T08:09:21.811Z,41.10
2019-04-03T08:11:51.305Z,40.40
2019-04-03T08:14:20.857Z,41.10
2019-04-03T08:16:50.276Z,40.70
2019-04-03T08:19:22.230Z,39.40
2019-04-03T08:21:50.860Z,39.10
2019-04-03T08:24:20.473Z,39.90
2019-04-03T08:26:51.602Z,40.80
2019-04-03T08:29:21.154Z,41.10
2019-04-03T08:31:50.581Z,40.00
2019-04-03T08:34:20.043Z,40.60
2019-04-03T08:36:49.817Z,40.00
2019-04-03T08:39:19.343Z,39.70
2019-04-03T08:41:48.733Z,40.20
2019-04-03T08:44:18.378Z,39.80
2019-04-03T08:46:47.803Z,39.60
2019-04-03T08:49:17.206Z,39.60
2019-04-03T08:51:47.068Z,38.80
2019-04-03T08:54:16.603Z,38.80
2019-04-03T08:59:16.539Z,39.10
2019-04-03T09:01:46.036Z,38.90
2019-04-03T09:04:16.821Z,38.40
2019-04-03T09:06:46.617Z,38.30
2019-04-03T09:09:16.048Z,38.80
2019-04-03T09:11:45.707Z,37.70
2019-04-03T09:14:15.128Z,37.50
2019-04-03T09:16:44.920Z,38.00
2019-04-03T09:19:16.808Z,37.40
2019-04-03T09:21:50.184Z,37.10
2019-04-03T09:24:16.670Z,37.10
2019-04-03T09:26:46.319Z,37.70
2019-04-03T09:29:16.051Z,37.50
2019-04-03T09:31:45.508Z,36.50
2019-04-03T09:34:15.091Z,37.40
2019-04-03T09:36:44.635Z,36.10
2019-04-03T09:41:44.348Z,36.40
2019-04-03T09:44:14.344Z,36.50
2019-04-03T09:46:45.138Z,37.20
2019-04-03T09:49:15.333Z,37.50
2019-04-03T09:51:44.925Z,36.60
2019-04-03T09:54:14.274Z,36.70
2019-04-03T09:56:56.364Z,36.30
2019-04-03T09:59:16.137Z,36.00
2019-04-03T10:01:47.930Z,36.50
2019-04-03T10:04:20.059Z,36.10
2019-04-03T10:06:48.568Z,36.20
2019-04-03T10:09:18.294Z,36.60
2019-04-03T10:11:48.784Z,36.30
2019-04-03T10:14:18.862Z,36.10
2019-04-03T10:19:17.370Z,35.20
2019-04-03T10:21:46.893Z,36.30
2019-04-03T10:24:16.456Z,35.60
2019-04-03T10:29:14.881Z,34.90
2019-04-03T10:31:44.389Z,37.70
2019-04-03T10:34:14.799Z,36.00
2019-04-03T10:36:44.437Z,35.30
2019-04-03T10:39:13.894Z,35.20
2019-04-03T10:41:43.804Z,34.60
2019-04-03T10:44:13.200Z,34.30
2019-04-03T10:46:42.632Z,35.10
2019-04-03T10:49:12.101Z,34.50
2019-04-03T10:51:42.067Z,33.60
2019-04-03T10:54:11.852Z,34.40
2019-04-03T10:59:13.721Z,33.70
2019-04-03T11:04:12.089Z,33.90
2019-04-03T11:06:42.243Z,34.30
2019-04-03T11:09:12.681Z,34.40
2019-04-03T11:11:43.476Z,34.10
2019-04-03T11:14:13.593Z,33.50
2019-04-03T11:16:45.971Z,33.70
2019-04-03T11:19:14.152Z,34.20
2019-04-03T11:21:44.981Z,34.00
2019-04-03T11:24:14.697Z,33.80
2019-04-03T11:26:44.535Z,35.90
2019-04-03T11:29:13.944Z,34.80
2019-04-03T11:34:17.104Z,34.00
2019-04-03T11:39:15.805Z,33.90
2019-04-03T11:44:16.241Z,33.90
2019-04-03T11:46:45.841Z,34.40
2019-04-03T11:51:44.137Z,33.90
2019-04-03T11:56:44.923Z,33.30
2019-04-03T11:59:13.579Z,34.30
2019-04-03T12:04:13.486Z,32.80
2019-04-03T12:06:43.203Z,32.60
2019-04-03T12:09:13.184Z,33.80
2019-04-03T12:11:42.682Z,32.70
2019-04-03T12:16:41.453Z,31.70
2019-04-03T12:21:43.503Z,31.80
2019-04-03T12:24:14.353Z,32.60
2019-04-03T12:26:44.284Z,31.40
2019-04-03T12:29:14.691Z,32.60
2019-04-03T12:34:14.082Z,32.30
2019-04-03T12:41:45.508Z,32.00
2019-04-03T12:44:14.986Z,32.90
2019-04-03T12:46:44.724Z,32.20
2019-04-03T12:51:43.506Z,31.90
2019-04-03T12:56:43.880Z,31.80
2019-04-03T13:06:41.943Z,31.80
2019-04-03T13:09:14.260Z,32.10
2019-04-03T13:29:14.181Z,31.60
2019-04-03T13:34:15.587Z,31.30
2019-04-03T13:39:14.370Z,31.20
2019-04-03T13:46:42.303Z,31.80
2019-04-03T13:54:10.421Z,32.00
2019-04-03T13:56:42.133Z,32.70
2019-04-03T14:11:39.900Z,32.10
2019-04-03T14:16:38.600Z,32.10
2019-04-03T14:29:07.067Z,31.80
2019-04-03T14:34:08.374Z,31.30
2019-04-03T16:21:29.393Z,38.30
2019-04-03T16:26:28.868Z,39.10
2019-04-03T16:31:27.509Z,39.40
2019-04-03T16:41:25.600Z,39.00
2019-04-03T16:43:55.364Z,39.40
2019-04-03T16:53:51.937Z,39.50
2019-04-03T17:18:47.116Z,40.80
2019-04-03T17:23:46.141Z,41.00
2019-04-03T17:26:16.225Z,41.10
2019-04-03T17:36:14.452Z,40.70
2019-04-03T17:41:15.858Z,40.40
2019-04-03T17:43:45.707Z,41.30
2019-04-03T17:56:13.714Z,40.50
2019-04-03T18:13:44.248Z,40.40
2019-04-03T18:18:43.416Z,40.80
2019-04-03T18:23:45.106Z,41.00
2019-04-03T18:31:15.126Z,40.80
2019-04-03T18:43:47.026Z,41.20
2019-04-03T18:46:22.034Z,41.80
2019-04-03T18:53:49.118Z,41.50
2019-04-03T18:58:48.139Z,41.50
2019-04-03T19:03:47.148Z,41.60
2019-04-03T19:06:16.615Z,42.50
2019-04-03T19:23:49.811Z,43.10
2019-04-03T19:26:19.917Z,43.70
2019-04-03T19:31:19.993Z,43.20
2019-04-03T19:36:20.303Z,43.20
2019-04-03T19:38:49.820Z,43.70
2019-04-03T19:56:14.739Z,43.40
2019-04-03T19:58:44.613Z,44.20
2019-04-03T20:01:14.075Z,43.60
2019-04-03T20:08:42.864Z,43.70
2019-04-03T20:13:41.194Z,43.80
2019-04-03T20:16:10.940Z,44.60
2019-04-03T20:21:11.680Z,43.90
2019-04-03T20:33:38.627Z,44.10
2019-04-03T20:36:10.089Z,44.90
2019-04-03T20:43:38.196Z,44.40
2019-04-03T20:53:36.927Z,44.50
2019-04-03T20:56:06.425Z,45.10
2019-04-03T21:01:06.896Z,44.50
2019-04-03T21:06:05.289Z,44.70
2019-04-03T21:08:34.797Z,45.60
2019-04-03T21:11:04.542Z,45.70
2019-04-03T21:13:34.020Z,45.70
2019-04-03T21:18:32.400Z,45.20
2019-04-03T21:21:01.874Z,46.10
2019-04-03T21:23:33.410Z,46.20
2019-04-03T21:26:02.913Z,46.40
2019-04-03T21:33:31.383Z,45.70
2019-04-03T21:38:30.062Z,45.80
2019-04-03T21:40:59.539Z,46.40
2019-04-03T21:43:29.740Z,46.70
2019-04-03T21:45:59.702Z,46.90
2019-04-03T21:50:58.050Z,46.40
2019-04-03T21:53:27.477Z,47.00
2019-04-03T21:55:56.985Z,47.10
2019-04-03T21:58:26.541Z,46.80
2019-04-03T22:01:21.699Z,47.20
2019-04-03T22:03:52.399Z,47.40
2019-04-03T22:06:22.097Z,47.90
2019-04-03T22:11:21.235Z,47.30
2019-04-03T22:13:51.032Z,48.00
2019-04-03T22:16:20.630Z,48.10
2019-04-03T22:18:50.007Z,48.20
2019-04-03T22:23:48.345Z,47.70
2019-04-03T22:26:17.801Z,48.70
2019-04-03T22:28:47.631Z,48.70
2019-04-03T22:31:17.122Z,48.70
2019-04-03T22:36:15.402Z,48.20
2019-04-03T22:38:44.901Z,48.90
2019-04-03T22:43:44.157Z,48.50
2019-04-03T22:46:14.303Z,49.10
2019-04-03T22:48:43.713Z,49.20
2019-04-03T22:53:44.693Z,48.80
2019-04-03T22:56:16.436Z,49.40
2019-04-03T23:01:17.115Z,48.70
2019-04-03T23:06:18.803Z,48.70
2019-04-03T23:08:48.763Z,49.30
2019-04-03T23:11:18.207Z,49.50
2019-04-03T23:13:48.209Z,49.60
2019-04-03T23:16:17.643Z,49.70
2019-04-03T23:18:47.516Z,49.60
2019-04-03T23:21:17.149Z,49.80
2019-04-03T23:23:46.856Z,49.90
2019-04-03T23:26:16.281Z,50.10
2019-04-03T23:28:45.743Z,50.20
2019-04-03T23:31:15.246Z,50.30
2019-04-03T23:33:47.550Z,50.30
2019-04-03T23:38:45.294Z,49.70
2019-04-03T23:41:14.813Z,50.30
2019-04-03T23:46:14.720Z,49.80
2019-04-03T23:48:44.241Z,49.80
2019-04-03T23:51:23.038Z,50.60
2019-04-03T23:53:44.775Z,50.60
2019-04-03T23:56:14.202Z,50.70
2019-04-03T23:58:43.800Z,50.90
